sensor_id;sensor_type;location;lat;lon;timestamp;P1;durP1;ratioP1;P2;durP2;ratioP2
18931;SDS011;9598;50.954;3.112;2022-09-01T00:00:21;5.90;;;3.22;;
18931;SDS011;9598;50.954;3.112;2022-09-01T00:05:28;5.28;;;3.22;;
18931;SDS011;9598;50.954;3.112;2022-09-01T00:10:33;5.07;;;3.45;;
18931;SDS011;9598;50.954;3.112;2022-09-01T00:15:35;8.07;;;4.55;;
18931;SDS011;9598;50.954;3.112;2022-09-01T00:20:37;8.98;;;4.75;;
18931;SDS011;9598;50.954;3.112;2022-09-01T00:25:41;7.53;;;4.28;;
18931;SDS011;9598;50.954;3.112;2022-09-01T00:30:43;6.45;;;3.70;;
18931;SDS011;9598;50.954;3.112;2022-09-01T00:35:46;5.03;;;3.92;;
18931;SDS011;9598;50.954;3.112;2022-09-01T00:40:49;4.20;;;2.92;;
18931;SDS011;9598;50.954;3.112;2022-09-01T00:45:52;4.03;;;2.80;;
18931;SDS011;9598;50.954;3.112;2022-09-01T00:50:54;3.33;;;2.72;;
18931;SDS011;9598;50.954;3.112;2022-09-01T00:55:57;3.15;;;2.83;;
18931;SDS011;9598;50.954;3.112;2022-09-01T01:01:00;3.17;;;2.67;;
18931;SDS011;9598;50.954;3.112;2022-09-01T01:06:04;3.40;;;2.92;;
18931;SDS011;9598;50.954;3.112;2022-09-01T01:11:10;7.47;;;3.97;;
18931;SDS011;9598;50.954;3.112;2022-09-01T01:16:17;5.90;;;3.75;;
18931;SDS011;9598;50.954;3.112;2022-09-01T01:21:21;6.25;;;3.95;;
18931;SDS011;9598;50.954;3.112;2022-09-01T01:26:45;8.07;;;4.07;;
18931;SDS011;9598;50.954;3.112;2022-09-01T01:31:47;6.65;;;3.58;;
18931;SDS011;9598;50.954;3.112;2022-09-01T01:36:53;6.28;;;4.32;;
18931;SDS011;9598;50.954;3.112;2022-09-01T01:42:01;9.55;;;4.50;;
18931;SDS011;9598;50.954;3.112;2022-09-01T01:47:04;6.57;;;4.47;;
18931;SDS011;9598;50.954;3.112;2022-09-01T01:52:10;9.10;;;4.80;;
18931;SDS011;9598;50.954;3.112;2022-09-01T01:57:17;7.13;;;4.15;;
18931;SDS011;9598;50.954;3.112;2022-09-01T02:02:19;6.72;;;4.70;;
18931;SDS011;9598;50.954;3.112;2022-09-01T02:07:22;9.30;;;4.60;;
18931;SDS011;9598;50.954;3.112;2022-09-01T02:12:26;7.75;;;5.00;;
18931;SDS011;9598;50.954;3.112;2022-09-01T02:17:28;8.82;;;5.32;;
18931;SDS011;9598;50.954;3.112;2022-09-01T02:22:30;9.00;;;5.32;;
18931;SDS011;9598;50.954;3.112;2022-09-01T02:27:33;8.80;;;5.30;;
18931;SDS011;9598;50.954;3.112;2022-09-01T02:32:38;8.60;;;5.55;;
18931;SDS011;9598;50.954;3.112;2022-09-01T02:37:41;6.47;;;4.07;;
18931;SDS011;9598;50.954;3.112;2022-09-01T02:42:47;5.63;;;3.97;;
18931;SDS011;9598;50.954;3.112;2022-09-01T02:47:52;6.03;;;3.88;;
18931;SDS011;9598;50.954;3.112;2022-09-01T02:52:56;8.00;;;4.60;;
18931;SDS011;9598;50.954;3.112;2022-09-01T02:58:00;10.00;;;4.82;;
18931;SDS011;9598;50.954;3.112;2022-09-01T03:03:03;10.07;;;5.00;;
18931;SDS011;9598;50.954;3.112;2022-09-01T03:08:07;12.10;;;5.90;;
18931;SDS011;9598;50.954;3.112;2022-09-01T03:13:18;10.57;;;6.45;;
18931;SDS011;9598;50.954;3.112;2022-09-01T03:18:23;12.20;;;6.22;;
18931;SDS011;9598;50.954;3.112;2022-09-01T03:23:25;7.25;;;5.15;;
18931;SDS011;9598;50.954;3.112;2022-09-01T03:28:28;7.57;;;4.57;;
18931;SDS011;9598;50.954;3.112;2022-09-01T03:33:31;6.45;;;4.00;;
18931;SDS011;9598;50.954;3.112;2022-09-01T03:38:34;6.07;;;3.30;;
18931;SDS011;9598;50.954;3.112;2022-09-01T03:43:39;3.72;;;2.83;;
18931;SDS011;9598;50.954;3.112;2022-09-01T03:48:41;7.07;;;3.47;;
18931;SDS011;9598;50.954;3.112;2022-09-01T03:53:44;3.45;;;2.95;;
18931;SDS011;9598;50.954;3.112;2022-09-01T03:58:47;4.05;;;3.17;;
18931;SDS011;9598;50.954;3.112;2022-09-01T04:03:51;3.33;;;3.00;;
18931;SDS011;9598;50.954;3.112;2022-09-01T04:08:57;4.78;;;2.78;;
18931;SDS011;9598;50.954;3.112;2022-09-01T04:14:08;4.07;;;2.85;;
18931;SDS011;9598;50.954;3.112;2022-09-01T04:19:13;3.15;;;2.78;;
18931;SDS011;9598;50.954;3.112;2022-09-01T04:24:20;3.28;;;2.60;;
18931;SDS011;9598;50.954;3.112;2022-09-01T04:29:26;4.03;;;2.75;;
18931;SDS011;9598;50.954;3.112;2022-09-01T04:34:30;4.68;;;3.08;;
18931;SDS011;9598;50.954;3.112;2022-09-01T04:39:37;8.20;;;3.75;;
18931;SDS011;9598;50.954;3.112;2022-09-01T04:44:41;8.48;;;3.65;;
18931;SDS011;9598;50.954;3.112;2022-09-01T04:49:46;16.98;;;4.65;;
18931;SDS011;9598;50.954;3.112;2022-09-01T04:54:48;12.73;;;4.53;;
18931;SDS011;9598;50.954;3.112;2022-09-01T04:59:53;6.20;;;3.35;;
18931;SDS011;9598;50.954;3.112;2022-09-01T05:04:56;4.22;;;3.13;;
18931;SDS011;9598;50.954;3.112;2022-09-01T05:09:58;4.93;;;2.80;;
18931;SDS011;9598;50.954;3.112;2022-09-01T05:15:31;4.25;;;2.70;;
18931;SDS011;9598;50.954;3.112;2022-09-01T05:20:33;6.18;;;3.55;;
18931;SDS011;9598;50.954;3.112;2022-09-01T05:25:41;4.32;;;2.75;;
18931;SDS011;9598;50.954;3.112;2022-09-01T05:30:46;5.07;;;3.25;;
18931;SDS011;9598;50.954;3.112;2022-09-01T05:35:52;4.25;;;3.67;;
18931;SDS011;9598;50.954;3.112;2022-09-01T05:40:56;5.15;;;3.13;;
18931;SDS011;9598;50.954;3.112;2022-09-01T05:46:06;4.55;;;3.78;;
18931;SDS011;9598;50.954;3.112;2022-09-01T05:51:10;4.93;;;3.40;;
18931;SDS011;9598;50.954;3.112;2022-09-01T05:56:18;4.72;;;3.75;;
18931;SDS011;9598;50.954;3.112;2022-09-01T06:01:25;6.00;;;3.80;;
18931;SDS011;9598;50.954;3.112;2022-09-01T06:06:34;6.68;;;4.10;;
18931;SDS011;9598;50.954;3.112;2022-09-01T06:11:38;8.43;;;4.30;;
18931;SDS011;9598;50.954;3.112;2022-09-01T06:16:43;9.32;;;4.93;;
18931;SDS011;9598;50.954;3.112;2022-09-01T06:21:49;9.38;;;5.45;;
18931;SDS011;9598;50.954;3.112;2022-09-01T06:26:52;6.05;;;4.70;;
18931;SDS011;9598;50.954;3.112;2022-09-01T06:31:56;7.88;;;4.95;;
18931;SDS011;9598;50.954;3.112;2022-09-01T06:37:02;5.78;;;4.38;;
18931;SDS011;9598;50.954;3.112;2022-09-01T06:42:04;8.05;;;4.85;;
18931;SDS011;9598;50.954;3.112;2022-09-01T06:47:21;5.93;;;4.97;;
18931;SDS011;9598;50.954;3.112;2022-09-01T06:52:24;6.93;;;5.13;;
18931;SDS011;9598;50.954;3.112;2022-09-01T06:57:26;7.20;;;5.28;;
18931;SDS011;9598;50.954;3.112;2022-09-01T07:02:30;10.70;;;5.68;;
18931;SDS011;9598;50.954;3.112;2022-09-01T07:07:48;6.38;;;5.68;;
18931;SDS011;9598;50.954;3.112;2022-09-01T07:13:10;8.27;;;5.55;;
18931;SDS011;9598;50.954;3.112;2022-09-01T07:18:22;7.78;;;5.45;;
18931;SDS011;9598;50.954;3.112;2022-09-01T07:23:25;9.73;;;5.90;;
18931;SDS011;9598;50.954;3.112;2022-09-01T07:28:29;8.80;;;6.20;;
18931;SDS011;9598;50.954;3.112;2022-09-01T07:33:34;8.88;;;6.80;;
18931;SDS011;9598;50.954;3.112;2022-09-01T07:38:36;9.48;;;6.90;;
18931;SDS011;9598;50.954;3.112;2022-09-01T07:43:39;7.85;;;6.43;;
18931;SDS011;9598;50.954;3.112;2022-09-01T07:48:57;9.82;;;6.85;;
18931;SDS011;9598;50.954;3.112;2022-09-01T07:54:01;8.52;;;6.80;;
18931;SDS011;9598;50.954;3.112;2022-09-01T07:59:04;8.57;;;6.72;;
18931;SDS011;9598;50.954;3.112;2022-09-01T08:04:09;8.32;;;7.43;;
18931;SDS011;9598;50.954;3.112;2022-09-01T08:09:14;9.48;;;7.60;;
18931;SDS011;9598;50.954;3.112;2022-09-01T08:14:16;7.60;;;6.90;;
18931;SDS011;9598;50.954;3.112;2022-09-01T08:19:21;10.43;;;7.63;;
18931;SDS011;9598;50.954;3.112;2022-09-01T08:24:40;11.18;;;7.68;;
18931;SDS011;9598;50.954;3.112;2022-09-01T08:29:42;8.30;;;6.50;;
18931;SDS011;9598;50.954;3.112;2022-09-01T08:34:46;9.57;;;8.50;;
18931;SDS011;9598;50.954;3.112;2022-09-01T08:39:48;9.05;;;8.02;;
18931;SDS011;9598;50.954;3.112;2022-09-01T08:44:51;9.88;;;7.97;;
18931;SDS011;9598;50.954;3.112;2022-09-01T08:49:59;9.20;;;8.30;;
18931;SDS011;9598;50.954;3.112;2022-09-01T08:55:21;10.20;;;8.20;;
18931;SDS011;9598;50.954;3.112;2022-09-01T09:00:36;9.63;;;8.73;;
18931;SDS011;9598;50.954;3.112;2022-09-01T09:05:56;11.77;;;8.85;;
18931;SDS011;9598;50.954;3.112;2022-09-01T09:11:07;11.13;;;7.95;;
18931;SDS011;9598;50.954;3.112;2022-09-01T09:16:20;11.60;;;8.48;;
18931;SDS011;9598;50.954;3.112;2022-09-01T09:21:27;9.45;;;8.60;;
18931;SDS011;9598;50.954;3.112;2022-09-01T09:26:33;9.88;;;8.20;;
18931;SDS011;9598;50.954;3.112;2022-09-01T09:31:36;9.60;;;8.63;;
18931;SDS011;9598;50.954;3.112;2022-09-01T09:36:44;10.00;;;8.77;;
18931;SDS011;9598;50.954;3.112;2022-09-01T09:42:00;10.60;;;8.20;;
18931;SDS011;9598;50.954;3.112;2022-09-01T09:47:09;9.70;;;8.80;;
18931;SDS011;9598;50.954;3.112;2022-09-01T09:52:15;10.27;;;8.25;;
18931;SDS011;9598;50.954;3.112;2022-09-01T09:57:18;10.63;;;7.72;;
18931;SDS011;9598;50.954;3.112;2022-09-01T10:02:24;7.50;;;6.82;;
18931;SDS011;9598;50.954;3.112;2022-09-01T10:07:34;10.43;;;8.25;;
18931;SDS011;9598;50.954;3.112;2022-09-01T10:12:37;8.65;;;7.75;;
18931;SDS011;9598;50.954;3.112;2022-09-01T10:17:39;7.97;;;7.13;;
18931;SDS011;9598;50.954;3.112;2022-09-01T10:22:44;9.27;;;7.43;;
18931;SDS011;9598;50.954;3.112;2022-09-01T10:27:46;8.07;;;7.35;;
18931;SDS011;9598;50.954;3.112;2022-09-01T10:32:53;8.05;;;7.25;;
18931;SDS011;9598;50.954;3.112;2022-09-01T10:37:58;7.43;;;6.72;;
18931;SDS011;9598;50.954;3.112;2022-09-01T10:48:37;6.72;;;5.65;;
18931;SDS011;9598;50.954;3.112;2022-09-01T10:53:42;7.90;;;7.15;;
18931;SDS011;9598;50.954;3.112;2022-09-01T10:58:47;6.10;;;5.32;;
18931;SDS011;9598;50.954;3.112;2022-09-01T11:04:00;5.55;;;4.70;;
18931;SDS011;9598;50.954;3.112;2022-09-01T11:09:04;5.28;;;4.75;;
18931;SDS011;9598;50.954;3.112;2022-09-01T11:14:15;5.03;;;4.50;;
18931;SDS011;9598;50.954;3.112;2022-09-01T11:19:32;4.00;;;3.53;;
18931;SDS011;9598;50.954;3.112;2022-09-01T11:24:49;4.32;;;3.85;;
18931;SDS011;9598;50.954;3.112;2022-09-01T11:29:59;4.32;;;3.92;;
18931;SDS011;9598;50.954;3.112;2022-09-01T11:35:12;5.13;;;4.18;;
18931;SDS011;9598;50.954;3.112;2022-09-01T11:40:20;4.20;;;3.90;;
18931;SDS011;9598;50.954;3.112;2022-09-01T11:45:26;4.90;;;4.22;;
18931;SDS011;9598;50.954;3.112;2022-09-01T11:50:32;6.95;;;4.40;;
18931;SDS011;9598;50.954;3.112;2022-09-01T11:55:38;4.50;;;4.10;;
18931;SDS011;9598;50.954;3.112;2022-09-01T12:00:42;6.05;;;4.10;;
18931;SDS011;9598;50.954;3.112;2022-09-01T12:05:45;4.75;;;3.92;;
18931;SDS011;9598;50.954;3.112;2022-09-01T12:10:49;8.80;;;4.93;;
18931;SDS011;9598;50.954;3.112;2022-09-01T12:16:03;51.40;;;12.85;;
18931;SDS011;9598;50.954;3.112;2022-09-01T12:21:07;5.00;;;3.92;;
18931;SDS011;9598;50.954;3.112;2022-09-01T12:26:19;4.05;;;3.75;;
18931;SDS011;9598;50.954;3.112;2022-09-01T12:31:24;4.88;;;3.97;;
18931;SDS011;9598;50.954;3.112;2022-09-01T12:36:27;3.97;;;3.63;;
18931;SDS011;9598;50.954;3.112;2022-09-01T12:41:33;5.93;;;4.43;;
18931;SDS011;9598;50.954;3.112;2022-09-01T12:46:41;4.35;;;4.03;;
18931;SDS011;9598;50.954;3.112;2022-09-01T12:51:45;4.72;;;4.13;;
18931;SDS011;9598;50.954;3.112;2022-09-01T12:56:49;4.93;;;4.07;;
18931;SDS011;9598;50.954;3.112;2022-09-01T13:01:51;4.90;;;3.90;;
18931;SDS011;9598;50.954;3.112;2022-09-01T13:06:54;3.92;;;3.63;;
18931;SDS011;9598;50.954;3.112;2022-09-01T13:12:09;3.78;;;3.47;;
18931;SDS011;9598;50.954;3.112;2022-09-01T13:17:16;4.80;;;4.30;;
18931;SDS011;9598;50.954;3.112;2022-09-01T13:22:18;4.22;;;3.92;;
18931;SDS011;9598;50.954;3.112;2022-09-01T13:27:22;7.07;;;3.83;;
18931;SDS011;9598;50.954;3.112;2022-09-01T13:32:24;5.55;;;4.28;;
18931;SDS011;9598;50.954;3.112;2022-09-01T13:37:26;3.83;;;3.63;;
18931;SDS011;9598;50.954;3.112;2022-09-01T13:42:30;4.03;;;3.67;;
18931;SDS011;9598;50.954;3.112;2022-09-01T13:47:32;4.03;;;3.60;;
18931;SDS011;9598;50.954;3.112;2022-09-01T13:52:34;4.35;;;3.95;;
18931;SDS011;9598;50.954;3.112;2022-09-01T13:57:37;4.07;;;3.70;;
18931;SDS011;9598;50.954;3.112;2022-09-01T14:02:41;3.75;;;3.45;;
18931;SDS011;9598;50.954;3.112;2022-09-01T14:07:48;3.78;;;3.47;;
18931;SDS011;9598;50.954;3.112;2022-09-01T14:12:52;4.20;;;3.80;;
18931;SDS011;9598;50.954;3.112;2022-09-01T14:17:54;3.78;;;3.47;;
18931;SDS011;9598;50.954;3.112;2022-09-01T14:22:57;3.70;;;3.30;;
18931;SDS011;9598;50.954;3.112;2022-09-01T14:28:01;4.03;;;3.42;;
18931;SDS011;9598;50.954;3.112;2022-09-01T14:33:04;4.25;;;3.70;;
18931;SDS011;9598;50.954;3.112;2022-09-01T14:38:07;3.25;;;2.95;;
18931;SDS011;9598;50.954;3.112;2022-09-01T14:43:12;4.05;;;2.90;;
18931;SDS011;9598;50.954;3.112;2022-09-01T14:48:15;3.22;;;3.03;;
18931;SDS011;9598;50.954;3.112;2022-09-01T14:53:18;3.80;;;3.50;;
18931;SDS011;9598;50.954;3.112;2022-09-01T14:58:25;4.03;;;3.00;;
18931;SDS011;9598;50.954;3.112;2022-09-01T15:03:28;2.88;;;2.67;;
18931;SDS011;9598;50.954;3.112;2022-09-01T15:08:31;4.28;;;2.88;;
18931;SDS011;9598;50.954;3.112;2022-09-01T15:13:34;3.90;;;2.60;;
18931;SDS011;9598;50.954;3.112;2022-09-01T15:18:36;3.92;;;3.03;;
18931;SDS011;9598;50.954;3.112;2022-09-01T15:23:38;2.80;;;2.60;;
18931;SDS011;9598;50.954;3.112;2022-09-01T15:28:42;2.78;;;2.53;;
18931;SDS011;9598;50.954;3.112;2022-09-01T15:33:44;4.28;;;2.90;;
18931;SDS011;9598;50.954;3.112;2022-09-01T15:38:47;2.65;;;2.45;;
18931;SDS011;9598;50.954;3.112;2022-09-01T15:43:51;3.85;;;2.45;;
18931;SDS011;9598;50.954;3.112;2022-09-01T15:48:53;4.68;;;3.03;;
18931;SDS011;9598;50.954;3.112;2022-09-01T15:53:56;2.80;;;2.28;;
18931;SDS011;9598;50.954;3.112;2022-09-01T15:59:02;2.83;;;2.17;;
18931;SDS011;9598;50.954;3.112;2022-09-01T16:04:06;3.20;;;2.53;;
18931;SDS011;9598;50.954;3.112;2022-09-01T16:09:11;2.70;;;2.47;;
18931;SDS011;9598;50.954;3.112;2022-09-01T16:14:15;2.63;;;2.42;;
18931;SDS011;9598;50.954;3.112;2022-09-01T16:19:23;2.72;;;2.22;;
18931;SDS011;9598;50.954;3.112;2022-09-01T16:24:32;2.75;;;2.47;;
18931;SDS011;9598;50.954;3.112;2022-09-01T16:29:44;2.72;;;2.42;;
18931;SDS011;9598;50.954;3.112;2022-09-01T16:34:48;2.65;;;2.45;;
18931;SDS011;9598;50.954;3.112;2022-09-01T16:39:53;2.28;;;2.08;;
18931;SDS011;9598;50.954;3.112;2022-09-01T16:45:03;2.58;;;2.38;;
18931;SDS011;9598;50.954;3.112;2022-09-01T16:50:13;3.42;;;2.22;;
18931;SDS011;9598;50.954;3.112;2022-09-01T16:55:22;2.80;;;2.30;;
18931;SDS011;9598;50.954;3.112;2022-09-01T17:00:39;2.95;;;2.20;;
18931;SDS011;9598;50.954;3.112;2022-09-01T17:05:52;2.72;;;2.40;;
18931;SDS011;9598;50.954;3.112;2022-09-01T17:10:56;3.17;;;2.65;;
18931;SDS011;9598;50.954;3.112;2022-09-01T17:16:07;5.07;;;2.92;;
18931;SDS011;9598;50.954;3.112;2022-09-01T17:21:17;3.10;;;2.80;;
18931;SDS011;9598;50.954;3.112;2022-09-01T17:26:24;5.25;;;2.75;;
18931;SDS011;9598;50.954;3.112;2022-09-01T17:31:37;2.95;;;2.63;;
18931;SDS011;9598;50.954;3.112;2022-09-01T17:36:48;3.33;;;2.53;;
18931;SDS011;9598;50.954;3.112;2022-09-01T17:42:02;3.30;;;2.90;;
18931;SDS011;9598;50.954;3.112;2022-09-01T17:47:12;3.53;;;2.50;;
18931;SDS011;9598;50.954;3.112;2022-09-01T17:52:23;4.45;;;2.88;;
18931;SDS011;9598;50.954;3.112;2022-09-01T17:57:36;3.50;;;2.80;;
18931;SDS011;9598;50.954;3.112;2022-09-01T18:02:57;3.97;;;3.00;;
18931;SDS011;9598;50.954;3.112;2022-09-01T18:08:14;3.25;;;2.95;;
18931;SDS011;9598;50.954;3.112;2022-09-01T18:13:39;3.60;;;3.30;;
18931;SDS011;9598;50.954;3.112;2022-09-01T18:18:50;3.97;;;3.35;;
18931;SDS011;9598;50.954;3.112;2022-09-01T18:23:54;2.70;;;2.50;;
18931;SDS011;9598;50.954;3.112;2022-09-01T18:29:02;4.22;;;2.60;;
18931;SDS011;9598;50.954;3.112;2022-09-01T18:34:07;2.60;;;2.40;;
18931;SDS011;9598;50.954;3.112;2022-09-01T18:39:17;4.85;;;3.10;;
18931;SDS011;9598;50.954;3.112;2022-09-01T18:44:31;4.15;;;2.65;;
18931;SDS011;9598;50.954;3.112;2022-09-01T18:49:48;5.93;;;1.95;;
18931;SDS011;9598;50.954;3.112;2022-09-01T18:54:55;3.40;;;2.17;;
18931;SDS011;9598;50.954;3.112;2022-09-01T19:00:06;3.83;;;1.95;;
18931;SDS011;9598;50.954;3.112;2022-09-01T19:05:15;5.32;;;2.08;;
18931;SDS011;9598;50.954;3.112;2022-09-01T19:10:31;2.42;;;2.13;;
18931;SDS011;9598;50.954;3.112;2022-09-01T19:15:40;2.30;;;2.10;;
18931;SDS011;9598;50.954;3.112;2022-09-01T19:20:49;4.05;;;2.20;;
18931;SDS011;9598;50.954;3.112;2022-09-01T19:25:57;3.65;;;1.60;;
18931;SDS011;9598;50.954;3.112;2022-09-01T19:31:05;2.08;;;1.48;;
18931;SDS011;9598;50.954;3.112;2022-09-01T19:36:17;2.10;;;1.73;;
18931;SDS011;9598;50.954;3.112;2022-09-01T19:41:25;1.65;;;1.45;;
18931;SDS011;9598;50.954;3.112;2022-09-01T19:46:33;2.58;;;1.60;;
18931;SDS011;9598;50.954;3.112;2022-09-01T19:51:43;2.88;;;1.48;;
18931;SDS011;9598;50.954;3.112;2022-09-01T19:56:53;2.17;;;1.50;;
18931;SDS011;9598;50.954;3.112;2022-09-01T20:02:01;2.58;;;1.58;;
18931;SDS011;9598;50.954;3.112;2022-09-01T20:07:13;3.70;;;1.35;;
18931;SDS011;9598;50.954;3.112;2022-09-01T20:12:25;1.38;;;1.10;;
18931;SDS011;9598;50.954;3.112;2022-09-01T20:17:36;3.10;;;1.50;;
18931;SDS011;9598;50.954;3.112;2022-09-01T20:22:45;2.20;;;1.40;;
18931;SDS011;9598;50.954;3.112;2022-09-01T20:27:54;2.92;;;1.52;;
18931;SDS011;9598;50.954;3.112;2022-09-01T20:33:02;1.85;;;1.30;;
18931;SDS011;9598;50.954;3.112;2022-09-01T20:38:11;2.70;;;1.20;;
18931;SDS011;9598;50.954;3.112;2022-09-01T20:43:37;2.08;;;1.58;;
18931;SDS011;9598;50.954;3.112;2022-09-01T20:48:44;2.05;;;1.27;;
18931;SDS011;9598;50.954;3.112;2022-09-01T20:53:53;4.82;;;1.70;;
18931;SDS011;9598;50.954;3.112;2022-09-01T20:59:05;2.38;;;1.60;;
18931;SDS011;9598;50.954;3.112;2022-09-01T21:04:17;3.95;;;1.48;;
18931;SDS011;9598;50.954;3.112;2022-09-01T21:09:33;1.92;;;1.23;;
18931;SDS011;9598;50.954;3.112;2022-09-01T21:14:44;2.60;;;1.67;;
18931;SDS011;9598;50.954;3.112;2022-09-01T21:20:01;5.72;;;2.03;;
18931;SDS011;9598;50.954;3.112;2022-09-01T21:25:12;3.42;;;1.75;;
18931;SDS011;9598;50.954;3.112;2022-09-01T21:30:14;2.03;;;1.50;;
18931;SDS011;9598;50.954;3.112;2022-09-01T21:35:17;4.40;;;1.80;;
18931;SDS011;9598;50.954;3.112;2022-09-01T21:40:22;3.10;;;1.70;;
18931;SDS011;9598;50.954;3.112;2022-09-01T21:45:25;4.15;;;2.15;;
18931;SDS011;9598;50.954;3.112;2022-09-01T21:50:28;3.20;;;1.60;;
18931;SDS011;9598;50.954;3.112;2022-09-01T21:55:31;2.72;;;1.85;;
18931;SDS011;9598;50.954;3.112;2022-09-01T22:00:34;3.42;;;2.10;;
18931;SDS011;9598;50.954;3.112;2022-09-01T22:05:39;3.05;;;2.15;;
18931;SDS011;9598;50.954;3.112;2022-09-01T22:10:44;3.92;;;2.70;;
18931;SDS011;9598;50.954;3.112;2022-09-01T22:15:48;2.78;;;2.15;;
18931;SDS011;9598;50.954;3.112;2022-09-01T22:20:59;3.80;;;1.88;;
18931;SDS011;9598;50.954;3.112;2022-09-01T22:26:03;2.47;;;1.80;;
18931;SDS011;9598;50.954;3.112;2022-09-01T22:31:05;4.47;;;2.20;;
18931;SDS011;9598;50.954;3.112;2022-09-01T22:36:17;2.55;;;2.33;;
18931;SDS011;9598;50.954;3.112;2022-09-01T22:41:22;4.25;;;1.77;;
18931;SDS011;9598;50.954;3.112;2022-09-01T22:46:26;1.95;;;1.77;;
18931;SDS011;9598;50.954;3.112;2022-09-01T22:51:29;7.18;;;2.63;;
18931;SDS011;9598;50.954;3.112;2022-09-01T22:56:33;2.78;;;1.92;;
18931;SDS011;9598;50.954;3.112;2022-09-01T23:01:38;2.90;;;1.85;;
18931;SDS011;9598;50.954;3.112;2022-09-01T23:06:45;3.60;;;2.03;;
18931;SDS011;9598;50.954;3.112;2022-09-01T23:11:50;3.10;;;2.22;;
18931;SDS011;9598;50.954;3.112;2022-09-01T23:16:52;4.85;;;2.20;;
18931;SDS011;9598;50.954;3.112;2022-09-01T23:21:54;3.28;;;2.13;;
18931;SDS011;9598;50.954;3.112;2022-09-01T23:26:57;2.83;;;2.17;;
18931;SDS011;9598;50.954;3.112;2022-09-01T23:31:59;3.55;;;2.17;;
18931;SDS011;9598;50.954;3.112;2022-09-01T23:37:01;2.28;;;2.08;;
18931;SDS011;9598;50.954;3.112;2022-09-01T23:42:05;4.25;;;2.78;;
18931;SDS011;9598;50.954;3.112;2022-09-01T23:47:07;3.20;;;2.45;;
18931;SDS011;9598;50.954;3.112;2022-09-01T23:52:09;4.10;;;2.60;;
18931;SDS011;9598;50.954;3.112;2022-09-01T23:57:13;4.85;;;2.85;;
